This is the latest recevied weather packets stored in our database for station/object M0UPS-13. If no packets are shown the sender has not sent any weather packets the latest 10 day(s).
| Time | Temp. | Humidity | Pressure | Rain* | Wind** | Luminosity | Snow |
|---|---|---|---|---|---|---|---|
| 1777806602 | 17.78° C | 62% | 1010 hPa | 0 mm | - | 894 W/m² | - |
| 1777806303 | 17.22° C | 64% | 1010.1 hPa | 0 mm | - | 321 W/m² | - |
| 1777806002 | 17.78° C | 64% | 1010.1 hPa | 0 mm | - | 211 W/m² | - |
| 1777805702 | 18.89° C | 61% | 1010 hPa | 0 mm | - | 346 W/m² | - |
| 1777805402 | 17.78° C | 68% | 1010 hPa | 0 mm | - | 923 W/m² | - |
| 1777805102 | 16.67° C | 68% | 1010 hPa | 0 mm | - | 687 W/m² | - |
| 1777804803 | 16.67° C | 68% | 1010.1 hPa | 0 mm | - | 731 W/m² | - |
| 1777804502 | 17.22° C | 66% | 1010 hPa | 0 mm | - | 275 W/m² | - |
| 1777804202 | 17.78° C | 65% | 1010.1 hPa | 0 mm | - | 223 W/m² | - |
| 1777803902 | 17.78° C | 63% | 1010.1 hPa | 0 mm | - | 520 W/m² | - |
| 1777803603 | 17.22° C | 66% | 1010.1 hPa | 0 mm | - | 901 W/m² | - |
| 1777803302 | 16.67° C | 67% | 1010 hPa | 0 mm | - | 356 W/m² | - |
| 1777803002 | 16.67° C | 68% | 1010.2 hPa | 0 mm | - | 446 W/m² | - |
| 1777802702 | 16.67° C | 67% | 1010.1 hPa | 0 mm | - | 274 W/m² | - |
| 1777802403 | 16.67° C | 69% | 1010.1 hPa | 0 mm | - | 607 W/m² | - |
| 1777802102 | 16.67° C | 68% | 1010 hPa | 0 mm | - | 691 W/m² | - |
| 1777801802 | 16.67° C | 69% | 1010.1 hPa | 0 mm | - | 569 W/m² | - |
| 1777801502 | 16.67° C | 68% | 1010.2 hPa | 0 mm | - | 802 W/m² | - |
| 1777801202 | 16.67° C | 67% | 1010.1 hPa | 0 mm | - | 287 W/m² | - |
| 1777800902 | 16.11° C | 68% | 1010 hPa | 0 mm | - | 792 W/m² | - |
| 1777800602 | 16.11° C | 68% | 1010.1 hPa | 0 mm | - | 280 W/m² | - |
| 1777800302 | 16.11° C | 71% | 1010.1 hPa | 0 mm | - | 510 W/m² | - |
| 1777800002 | 15.56° C | 71% | 1010 hPa | 0 mm | - | 365 W/m² | - |
| 1777799702 | 15.56° C | 74% | 1010.2 hPa | 0 mm | - | 336 W/m² | - |
| 1777799402 | 15° C | 73% | 1010 hPa | 0 mm | - | 206 W/m² | - |
* Rain latest hour (hover to see other rain measurements)
** Current wind speed in m/s (hover to see current wind gust speed)